sensor_id;sensor_type;location;lat;lon;timestamp;P1;durP1;ratioP1;P2;durP2;ratioP2
239;SDS011;104;53.590;10.004;2023-09-19T00:00:30;12.93;;;5.50;;
239;SDS011;104;53.590;10.004;2023-09-19T00:03:00;12.93;;;5.47;;
239;SDS011;104;53.590;10.004;2023-09-19T00:05:27;12.40;;;5.80;;
239;SDS011;104;53.590;10.004;2023-09-19T00:07:56;7.77;;;5.73;;
239;SDS011;104;53.590;10.004;2023-09-19T00:10:24;16.43;;;5.77;;
239;SDS011;104;53.590;10.004;2023-09-19T00:12:52;12.13;;;5.60;;
239;SDS011;104;53.590;10.004;2023-09-19T00:15:20;8.90;;;5.17;;
239;SDS011;104;53.590;10.004;2023-09-19T00:17:47;8.23;;;5.60;;
239;SDS011;104;53.590;10.004;2023-09-19T00:20:18;8.93;;;5.90;;
239;SDS011;104;53.590;10.004;2023-09-19T00:22:48;9.03;;;5.00;;
239;SDS011;104;53.590;10.004;2023-09-19T00:25:15;10.50;;;5.67;;
239;SDS011;104;53.590;10.004;2023-09-19T00:27:43;7.80;;;5.43;;
239;SDS011;104;53.590;10.004;2023-09-19T00:30:12;7.20;;;5.17;;
239;SDS011;104;53.590;10.004;2023-09-19T00:32:44;9.77;;;4.83;;
239;SDS011;104;53.590;10.004;2023-09-19T00:35:12;7.20;;;5.23;;
239;SDS011;104;53.590;10.004;2023-09-19T00:37:41;8.40;;;5.47;;
239;SDS011;104;53.590;10.004;2023-09-19T00:40:09;13.23;;;5.73;;
239;SDS011;104;53.590;10.004;2023-09-19T00:42:38;9.07;;;5.80;;
239;SDS011;104;53.590;10.004;2023-09-19T00:45:06;12.63;;;5.37;;
239;SDS011;104;53.590;10.004;2023-09-19T00:47:34;8.33;;;5.23;;
239;SDS011;104;53.590;10.004;2023-09-19T00:50:03;6.30;;;4.93;;
239;SDS011;104;53.590;10.004;2023-09-19T00:52:32;15.27;;;5.67;;
239;SDS011;104;53.590;10.004;2023-09-19T00:55:03;14.23;;;5.43;;
239;SDS011;104;53.590;10.004;2023-09-19T00:57:31;12.13;;;5.37;;
239;SDS011;104;53.590;10.004;2023-09-19T00:59:58;9.80;;;5.40;;
239;SDS011;104;53.590;10.004;2023-09-19T01:02:30;8.27;;;5.63;;
239;SDS011;104;53.590;10.004;2023-09-19T01:04:58;11.03;;;5.20;;
239;SDS011;104;53.590;10.004;2023-09-19T01:07:25;9.60;;;5.47;;
239;SDS011;104;53.590;10.004;2023-09-19T01:09:55;8.97;;;5.40;;
239;SDS011;104;53.590;10.004;2023-09-19T01:12:30;9.67;;;4.97;;
239;SDS011;104;53.590;10.004;2023-09-19T01:14:59;7.70;;;4.83;;
239;SDS011;104;53.590;10.004;2023-09-19T01:17:30;8.83;;;4.70;;
239;SDS011;104;53.590;10.004;2023-09-19T01:20:03;6.20;;;4.33;;
239;SDS011;104;53.590;10.004;2023-09-19T01:22:37;5.63;;;4.27;;
239;SDS011;104;53.590;10.004;2023-09-19T01:25:24;5.40;;;4.20;;
239;SDS011;104;53.590;10.004;2023-09-19T01:28:10;7.63;;;4.23;;
239;SDS011;104;53.590;10.004;2023-09-19T01:30:42;9.60;;;4.47;;
239;SDS011;104;53.590;10.004;2023-09-19T01:33:10;9.60;;;4.43;;
239;SDS011;104;53.590;10.004;2023-09-19T01:35:37;14.40;;;4.23;;
239;SDS011;104;53.590;10.004;2023-09-19T01:38:05;5.60;;;4.30;;
239;SDS011;104;53.590;10.004;2023-09-19T01:40:36;8.63;;;5.07;;
239;SDS011;104;53.590;10.004;2023-09-19T01:43:09;8.77;;;4.30;;
239;SDS011;104;53.590;10.004;2023-09-19T01:45:37;10.07;;;4.40;;
239;SDS011;104;53.590;10.004;2023-09-19T01:48:12;10.80;;;4.60;;
239;SDS011;104;53.590;10.004;2023-09-19T01:50:44;10.70;;;4.13;;
239;SDS011;104;53.590;10.004;2023-09-19T01:53:19;5.53;;;3.97;;
239;SDS011;104;53.590;10.004;2023-09-19T01:55:49;6.30;;;4.30;;
239;SDS011;104;53.590;10.004;2023-09-19T01:58:20;4.57;;;3.60;;
239;SDS011;104;53.590;10.004;2023-09-19T02:00:48;5.77;;;3.83;;
239;SDS011;104;53.590;10.004;2023-09-19T02:03:18;5.63;;;3.80;;
239;SDS011;104;53.590;10.004;2023-09-19T02:05:48;9.10;;;4.43;;
239;SDS011;104;53.590;10.004;2023-09-19T02:08:16;4.90;;;3.40;;
239;SDS011;104;53.590;10.004;2023-09-19T02:10:44;5.10;;;3.30;;
239;SDS011;104;53.590;10.004;2023-09-19T02:13:14;7.00;;;3.57;;
239;SDS011;104;53.590;10.004;2023-09-19T02:15:42;5.70;;;3.80;;
239;SDS011;104;53.590;10.004;2023-09-19T02:18:10;5.40;;;3.67;;
239;SDS011;104;53.590;10.004;2023-09-19T02:20:39;8.60;;;3.37;;
239;SDS011;104;53.590;10.004;2023-09-19T02:23:06;7.57;;;3.57;;
239;SDS011;104;53.590;10.004;2023-09-19T02:25:34;7.33;;;3.57;;
239;SDS011;104;53.590;10.004;2023-09-19T02:28:03;6.23;;;3.63;;
239;SDS011;104;53.590;10.004;2023-09-19T02:30:30;8.57;;;3.93;;
239;SDS011;104;53.590;10.004;2023-09-19T02:32:58;7.83;;;3.73;;
239;SDS011;104;53.590;10.004;2023-09-19T02:35:26;5.33;;;3.70;;
239;SDS011;104;53.590;10.004;2023-09-19T02:37:55;5.90;;;4.00;;
239;SDS011;104;53.590;10.004;2023-09-19T02:40:22;6.43;;;4.50;;
239;SDS011;104;53.590;10.004;2023-09-19T02:42:52;6.37;;;3.87;;
239;SDS011;104;53.590;10.004;2023-09-19T02:45:20;6.50;;;3.90;;
239;SDS011;104;53.590;10.004;2023-09-19T02:47:47;6.13;;;4.13;;
239;SDS011;104;53.590;10.004;2023-09-19T02:50:15;7.93;;;4.63;;
239;SDS011;104;53.590;10.004;2023-09-19T02:52:43;5.27;;;4.60;;
239;SDS011;104;53.590;10.004;2023-09-19T02:55:14;7.13;;;4.60;;
239;SDS011;104;53.590;10.004;2023-09-19T02:57:45;8.53;;;4.10;;
239;SDS011;104;53.590;10.004;2023-09-19T03:00:12;6.83;;;4.57;;
239;SDS011;104;53.590;10.004;2023-09-19T03:02:40;6.73;;;4.50;;
239;SDS011;104;53.590;10.004;2023-09-19T03:05:09;9.87;;;4.57;;
239;SDS011;104;53.590;10.004;2023-09-19T03:07:37;7.63;;;4.40;;
239;SDS011;104;53.590;10.004;2023-09-19T03:10:05;10.23;;;4.73;;
239;SDS011;104;53.590;10.004;2023-09-19T03:12:34;9.97;;;4.63;;
239;SDS011;104;53.590;10.004;2023-09-19T03:15:01;11.07;;;4.43;;
239;SDS011;104;53.590;10.004;2023-09-19T03:17:29;8.13;;;4.83;;
239;SDS011;104;53.590;10.004;2023-09-19T03:19:57;9.10;;;4.73;;
239;SDS011;104;53.590;10.004;2023-09-19T03:22:25;5.57;;;4.10;;
239;SDS011;104;53.590;10.004;2023-09-19T03:24:53;6.90;;;4.20;;
239;SDS011;104;53.590;10.004;2023-09-19T03:27:20;6.63;;;3.50;;
239;SDS011;104;53.590;10.004;2023-09-19T03:29:48;3.50;;;3.30;;
239;SDS011;104;53.590;10.004;2023-09-19T03:32:15;6.80;;;3.93;;
239;SDS011;104;53.590;10.004;2023-09-19T03:34:42;6.43;;;3.63;;
239;SDS011;104;53.590;10.004;2023-09-19T03:37:09;4.27;;;3.80;;
239;SDS011;104;53.590;10.004;2023-09-19T03:39:37;4.07;;;3.40;;
239;SDS011;104;53.590;10.004;2023-09-19T03:42:04;4.40;;;3.63;;
239;SDS011;104;53.590;10.004;2023-09-19T03:44:32;4.93;;;3.57;;
239;SDS011;104;53.590;10.004;2023-09-19T03:47:00;9.63;;;3.67;;
239;SDS011;104;53.590;10.004;2023-09-19T03:49:29;7.73;;;3.80;;
239;SDS011;104;53.590;10.004;2023-09-19T03:51:56;8.03;;;3.60;;
239;SDS011;104;53.590;10.004;2023-09-19T03:54:23;8.43;;;3.60;;
239;SDS011;104;53.590;10.004;2023-09-19T03:56:50;7.07;;;4.03;;
239;SDS011;104;53.590;10.004;2023-09-19T03:59:18;8.33;;;3.80;;
239;SDS011;104;53.590;10.004;2023-09-19T04:01:45;7.53;;;3.43;;
239;SDS011;104;53.590;10.004;2023-09-19T04:04:14;6.47;;;3.67;;
239;SDS011;104;53.590;10.004;2023-09-19T04:06:43;4.70;;;3.50;;
239;SDS011;104;53.590;10.004;2023-09-19T04:09:11;6.00;;;3.60;;
239;SDS011;104;53.590;10.004;2023-09-19T04:11:38;6.40;;;3.53;;
239;SDS011;104;53.590;10.004;2023-09-19T04:14:05;5.67;;;3.10;;
239;SDS011;104;53.590;10.004;2023-09-19T04:16:32;6.10;;;3.63;;
239;SDS011;104;53.590;10.004;2023-09-19T04:18:59;4.83;;;3.40;;
239;SDS011;104;53.590;10.004;2023-09-19T04:21:29;7.57;;;3.90;;
239;SDS011;104;53.590;10.004;2023-09-19T04:23:57;6.63;;;4.00;;
239;SDS011;104;53.590;10.004;2023-09-19T04:26:24;9.30;;;3.63;;
239;SDS011;104;53.590;10.004;2023-09-19T04:28:51;5.80;;;3.60;;
239;SDS011;104;53.590;10.004;2023-09-19T04:31:18;9.00;;;3.40;;
239;SDS011;104;53.590;10.004;2023-09-19T04:33:47;5.03;;;3.20;;
239;SDS011;104;53.590;10.004;2023-09-19T04:36:14;5.47;;;3.90;;
239;SDS011;104;53.590;10.004;2023-09-19T04:38:43;12.97;;;3.70;;
239;SDS011;104;53.590;10.004;2023-09-19T04:41:10;6.93;;;3.93;;
239;SDS011;104;53.590;10.004;2023-09-19T04:43:38;4.80;;;3.70;;
239;SDS011;104;53.590;10.004;2023-09-19T04:46:05;5.70;;;3.37;;
239;SDS011;104;53.590;10.004;2023-09-19T04:48:32;3.90;;;3.43;;
239;SDS011;104;53.590;10.004;2023-09-19T04:51:00;6.33;;;4.17;;
239;SDS011;104;53.590;10.004;2023-09-19T04:53:28;5.80;;;3.40;;
239;SDS011;104;53.590;10.004;2023-09-19T04:55:56;4.90;;;3.30;;
239;SDS011;104;53.590;10.004;2023-09-19T04:58:24;3.40;;;3.20;;
239;SDS011;104;53.590;10.004;2023-09-19T05:00:51;5.60;;;3.60;;
239;SDS011;104;53.590;10.004;2023-09-19T05:03:18;9.60;;;3.93;;
239;SDS011;104;53.590;10.004;2023-09-19T05:05:47;6.83;;;3.10;;
239;SDS011;104;53.590;10.004;2023-09-19T05:08:14;8.10;;;3.40;;
239;SDS011;104;53.590;10.004;2023-09-19T05:10:41;8.20;;;3.50;;
239;SDS011;104;53.590;10.004;2023-09-19T05:13:10;4.07;;;3.10;;
239;SDS011;104;53.590;10.004;2023-09-19T05:15:37;5.63;;;3.00;;
239;SDS011;104;53.590;10.004;2023-09-19T05:18:05;7.70;;;3.60;;
239;SDS011;104;53.590;10.004;2023-09-19T05:20:32;5.13;;;3.00;;
239;SDS011;104;53.590;10.004;2023-09-19T05:23:01;8.23;;;3.63;;
239;SDS011;104;53.590;10.004;2023-09-19T05:25:30;6.27;;;3.10;;
239;SDS011;104;53.590;10.004;2023-09-19T05:28:02;9.13;;;3.20;;
239;SDS011;104;53.590;10.004;2023-09-19T05:30:32;5.50;;;3.20;;
239;SDS011;104;53.590;10.004;2023-09-19T05:33:01;5.17;;;4.93;;
239;SDS011;104;53.590;10.004;2023-09-19T05:35:32;4.93;;;2.80;;
239;SDS011;104;53.590;10.004;2023-09-19T05:38:02;7.93;;;3.80;;
239;SDS011;104;53.590;10.004;2023-09-19T05:40:30;5.80;;;2.70;;
239;SDS011;104;53.590;10.004;2023-09-19T05:42:57;8.47;;;3.10;;
239;SDS011;104;53.590;10.004;2023-09-19T05:45:25;8.00;;;3.17;;
239;SDS011;104;53.590;10.004;2023-09-19T05:47:53;2.93;;;2.73;;
239;SDS011;104;53.590;10.004;2023-09-19T05:50:26;3.13;;;2.77;;
239;SDS011;104;53.590;10.004;2023-09-19T05:52:53;4.43;;;2.80;;
239;SDS011;104;53.590;10.004;2023-09-19T05:55:22;4.60;;;3.10;;
239;SDS011;104;53.590;10.004;2023-09-19T05:57:50;2.90;;;2.70;;
239;SDS011;104;53.590;10.004;2023-09-19T06:00:17;4.50;;;2.90;;
239;SDS011;104;53.590;10.004;2023-09-19T06:02:49;3.50;;;2.50;;
239;SDS011;104;53.590;10.004;2023-09-19T06:05:17;4.87;;;3.13;;
239;SDS011;104;53.590;10.004;2023-09-19T06:07:44;4.50;;;3.10;;
239;SDS011;104;53.590;10.004;2023-09-19T06:10:12;5.73;;;2.70;;
239;SDS011;104;53.590;10.004;2023-09-19T06:12:39;9.60;;;2.90;;
239;SDS011;104;53.590;10.004;2023-09-19T06:15:10;5.13;;;2.57;;
239;SDS011;104;53.590;10.004;2023-09-19T06:17:40;3.70;;;2.50;;
239;SDS011;104;53.590;10.004;2023-09-19T06:20:07;7.00;;;2.60;;
239;SDS011;104;53.590;10.004;2023-09-19T06:22:43;3.13;;;2.63;;
239;SDS011;104;53.590;10.004;2023-09-19T06:25:11;9.73;;;2.80;;
239;SDS011;104;53.590;10.004;2023-09-19T06:27:44;3.50;;;3.00;;
239;SDS011;104;53.590;10.004;2023-09-19T06:30:11;5.10;;;3.00;;
239;SDS011;104;53.590;10.004;2023-09-19T06:32:39;4.60;;;2.20;;
239;SDS011;104;53.590;10.004;2023-09-19T06:35:09;2.33;;;2.10;;
239;SDS011;104;53.590;10.004;2023-09-19T06:37:36;2.93;;;2.77;;
239;SDS011;104;53.590;10.004;2023-09-19T06:40:07;3.70;;;2.50;;
239;SDS011;104;53.590;10.004;2023-09-19T06:42:38;6.67;;;2.87;;
239;SDS011;104;53.590;10.004;2023-09-19T06:45:06;6.13;;;3.10;;
239;SDS011;104;53.590;10.004;2023-09-19T06:47:34;4.40;;;2.20;;
239;SDS011;104;53.590;10.004;2023-09-19T06:50:01;2.30;;;2.10;;
239;SDS011;104;53.590;10.004;2023-09-19T06:52:30;3.87;;;2.40;;
239;SDS011;104;53.590;10.004;2023-09-19T06:54:58;3.50;;;2.77;;
239;SDS011;104;53.590;10.004;2023-09-19T06:57:29;3.17;;;2.57;;
239;SDS011;104;53.590;10.004;2023-09-19T06:59:56;10.60;;;2.70;;
239;SDS011;104;53.590;10.004;2023-09-19T07:02:23;10.53;;;2.47;;
239;SDS011;104;53.590;10.004;2023-09-19T07:04:51;2.70;;;2.50;;
239;SDS011;104;53.590;10.004;2023-09-19T07:07:18;3.93;;;2.47;;
239;SDS011;104;53.590;10.004;2023-09-19T07:09:45;3.67;;;2.37;;
239;SDS011;104;53.590;10.004;2023-09-19T07:12:13;2.60;;;2.40;;
239;SDS011;104;53.590;10.004;2023-09-19T07:14:43;2.50;;;2.20;;
239;SDS011;104;53.590;10.004;2023-09-19T07:17:10;2.37;;;2.23;;
239;SDS011;104;53.590;10.004;2023-09-19T07:19:38;2.73;;;2.23;;
239;SDS011;104;53.590;10.004;2023-09-19T07:22:05;4.83;;;2.30;;
239;SDS011;104;53.590;10.004;2023-09-19T07:24:33;2.50;;;2.30;;
239;SDS011;104;53.590;10.004;2023-09-19T07:27:01;3.57;;;2.43;;
239;SDS011;104;53.590;10.004;2023-09-19T07:29:30;4.73;;;2.30;;
239;SDS011;104;53.590;10.004;2023-09-19T07:31:59;2.40;;;2.20;;
239;SDS011;104;53.590;10.004;2023-09-19T07:34:26;2.53;;;2.30;;
239;SDS011;104;53.590;10.004;2023-09-19T07:36:53;2.50;;;2.30;;
239;SDS011;104;53.590;10.004;2023-09-19T07:39:20;2.33;;;2.13;;
239;SDS011;104;53.590;10.004;2023-09-19T07:41:47;3.00;;;2.23;;
239;SDS011;104;53.590;10.004;2023-09-19T07:44:14;4.00;;;2.60;;
239;SDS011;104;53.590;10.004;2023-09-19T07:46:42;2.80;;;2.50;;
239;SDS011;104;53.590;10.004;2023-09-19T07:49:10;4.10;;;2.70;;
239;SDS011;104;53.590;10.004;2023-09-19T07:51:38;4.03;;;2.27;;
239;SDS011;104;53.590;10.004;2023-09-19T07:54:05;3.57;;;2.67;;
239;SDS011;104;53.590;10.004;2023-09-19T07:56:33;3.00;;;2.40;;
239;SDS011;104;53.590;10.004;2023-09-19T07:59:00;2.73;;;2.50;;
239;SDS011;104;53.590;10.004;2023-09-19T08:01:27;3.73;;;2.40;;
239;SDS011;104;53.590;10.004;2023-09-19T08:03:54;2.93;;;2.40;;
239;SDS011;104;53.590;10.004;2023-09-19T08:06:23;3.07;;;2.50;;
239;SDS011;104;53.590;10.004;2023-09-19T08:08:51;2.53;;;2.30;;
239;SDS011;104;53.590;10.004;2023-09-19T08:11:20;3.70;;;2.50;;
239;SDS011;104;53.590;10.004;2023-09-19T08:13:49;2.40;;;2.20;;
239;SDS011;104;53.590;10.004;2023-09-19T08:16:17;4.77;;;2.60;;
239;SDS011;104;53.590;10.004;2023-09-19T08:18:47;4.00;;;2.80;;
239;SDS011;104;53.590;10.004;2023-09-19T08:21:20;3.00;;;2.87;;
239;SDS011;104;53.590;10.004;2023-09-19T08:23:48;5.63;;;2.70;;
239;SDS011;104;53.590;10.004;2023-09-19T08:26:15;2.50;;;2.20;;
239;SDS011;104;53.590;10.004;2023-09-19T08:28:43;3.70;;;2.50;;
239;SDS011;104;53.590;10.004;2023-09-19T08:31:10;3.27;;;2.50;;
239;SDS011;104;53.590;10.004;2023-09-19T08:33:37;4.90;;;2.80;;
239;SDS011;104;53.590;10.004;2023-09-19T08:36:05;2.90;;;2.50;;
239;SDS011;104;53.590;10.004;2023-09-19T08:38:34;2.27;;;2.10;;
239;SDS011;104;53.590;10.004;2023-09-19T08:41:06;2.63;;;2.47;;
239;SDS011;104;53.590;10.004;2023-09-19T08:43:33;6.73;;;2.50;;
239;SDS011;104;53.590;10.004;2023-09-19T08:46:03;7.70;;;2.53;;
239;SDS011;104;53.590;10.004;2023-09-19T08:48:33;19.13;;;2.60;;
239;SDS011;104;53.590;10.004;2023-09-19T08:51:02;3.30;;;2.40;;
239;SDS011;104;53.590;10.004;2023-09-19T08:53:31;3.20;;;2.60;;
239;SDS011;104;53.590;10.004;2023-09-19T08:56:03;3.90;;;2.70;;
239;SDS011;104;53.590;10.004;2023-09-19T08:58:34;2.97;;;2.50;;
239;SDS011;104;53.590;10.004;2023-09-19T09:01:01;4.40;;;2.60;;
239;SDS011;104;53.590;10.004;2023-09-19T09:03:32;7.20;;;2.33;;
239;SDS011;104;53.590;10.004;2023-09-19T09:06:00;4.07;;;2.30;;
239;SDS011;104;53.590;10.004;2023-09-19T09:08:29;2.33;;;2.20;;
239;SDS011;104;53.590;10.004;2023-09-19T09:10:58;2.57;;;2.37;;
239;SDS011;104;53.590;10.004;2023-09-19T09:13:26;7.57;;;2.43;;
239;SDS011;104;53.590;10.004;2023-09-19T09:15:54;7.43;;;2.70;;
239;SDS011;104;53.590;10.004;2023-09-19T09:18:24;2.77;;;2.57;;
239;SDS011;104;53.590;10.004;2023-09-19T09:20:51;9.90;;;2.73;;
239;SDS011;104;53.590;10.004;2023-09-19T09:23:21;3.20;;;2.57;;
239;SDS011;104;53.590;10.004;2023-09-19T09:25:50;3.60;;;2.33;;
239;SDS011;104;53.590;10.004;2023-09-19T09:28:20;8.63;;;2.60;;
239;SDS011;104;53.590;10.004;2023-09-19T09:30:47;3.80;;;2.63;;
239;SDS011;104;53.590;10.004;2023-09-19T09:33:16;4.90;;;3.23;;
239;SDS011;104;53.590;10.004;2023-09-19T09:35:47;5.90;;;2.90;;
239;SDS011;104;53.590;10.004;2023-09-19T09:38:17;2.70;;;2.50;;
239;SDS011;104;53.590;10.004;2023-09-19T09:40:48;4.23;;;2.50;;
239;SDS011;104;53.590;10.004;2023-09-19T09:43:25;2.47;;;2.27;;
239;SDS011;104;53.590;10.004;2023-09-19T09:46:10;5.30;;;2.70;;
239;SDS011;104;53.590;10.004;2023-09-19T09:49:11;3.87;;;2.30;;
239;SDS011;104;53.590;10.004;2023-09-19T09:51:58;4.23;;;2.50;;
239;SDS011;104;53.590;10.004;2023-09-19T09:54:30;3.67;;;2.50;;
239;SDS011;104;53.590;10.004;2023-09-19T09:57:02;5.53;;;2.40;;
239;SDS011;104;53.590;10.004;2023-09-19T09:59:51;4.27;;;2.73;;
239;SDS011;104;53.590;10.004;2023-09-19T10:02:20;4.57;;;2.60;;
239;SDS011;104;53.590;10.004;2023-09-19T10:04:52;3.33;;;2.07;;
239;SDS011;104;53.590;10.004;2023-09-19T10:07:34;3.00;;;2.50;;
239;SDS011;104;53.590;10.004;2023-09-19T10:10:08;2.83;;;2.33;;
239;SDS011;104;53.590;10.004;2023-09-19T10:12:52;5.10;;;2.70;;
239;SDS011;104;53.590;10.004;2023-09-19T10:15:23;2.70;;;2.40;;
239;SDS011;104;53.590;10.004;2023-09-19T10:17:55;9.83;;;2.60;;
239;SDS011;104;53.590;10.004;2023-09-19T10:20:25;6.33;;;2.67;;
239;SDS011;104;53.590;10.004;2023-09-19T10:23:00;5.50;;;2.77;;
239;SDS011;104;53.590;10.004;2023-09-19T10:25:27;2.80;;;2.60;;
239;SDS011;104;53.590;10.004;2023-09-19T10:27:56;3.20;;;2.30;;
239;SDS011;104;53.590;10.004;2023-09-19T10:30:27;4.53;;;3.07;;
239;SDS011;104;53.590;10.004;2023-09-19T10:32:57;2.67;;;2.47;;
239;SDS011;104;53.590;10.004;2023-09-19T10:35:28;3.80;;;3.30;;
239;SDS011;104;53.590;10.004;2023-09-19T10:40:23;3.97;;;3.20;;
239;SDS011;104;53.590;10.004;2023-09-19T10:42:55;3.07;;;2.80;;
239;SDS011;104;53.590;10.004;2023-09-19T10:45:27;3.37;;;3.20;;
239;SDS011;104;53.590;10.004;2023-09-19T10:47:56;6.17;;;2.93;;
239;SDS011;104;53.590;10.004;2023-09-19T10:50:24;5.57;;;3.47;;
239;SDS011;104;53.590;10.004;2023-09-19T10:52:52;3.87;;;3.40;;
239;SDS011;104;53.590;10.004;2023-09-19T10:55:25;5.00;;;4.00;;
239;SDS011;104;53.590;10.004;2023-09-19T10:57:55;3.77;;;3.60;;
239;SDS011;104;53.590;10.004;2023-09-19T11:00:49;6.53;;;3.40;;
239;SDS011;104;53.590;10.004;2023-09-19T11:03:18;4.77;;;3.40;;
239;SDS011;104;53.590;10.004;2023-09-19T11:08:52;3.00;;;2.80;;
239;SDS011;104;53.590;10.004;2023-09-19T11:11:41;8.10;;;3.37;;
239;SDS011;104;53.590;10.004;2023-09-19T11:22:28;7.90;;;3.00;;
239;SDS011;104;53.590;10.004;2023-09-19T11:30:51;3.50;;;3.20;;
239;SDS011;104;53.590;10.004;2023-09-19T11:33:20;8.50;;;3.50;;
239;SDS011;104;53.590;10.004;2023-09-19T11:36:04;9.20;;;5.73;;
239;SDS011;104;53.590;10.004;2023-09-19T11:47:00;11.43;;;3.23;;
239;SDS011;104;53.590;10.004;2023-09-19T11:49:29;10.40;;;3.40;;
239;SDS011;104;53.590;10.004;2023-09-19T11:51:57;3.57;;;3.37;;
239;SDS011;104;53.590;10.004;2023-09-19T11:54:27;6.97;;;4.13;;
239;SDS011;104;53.590;10.004;2023-09-19T11:56:56;3.90;;;3.70;;
239;SDS011;104;53.590;10.004;2023-09-19T11:59:24;5.80;;;4.13;;
239;SDS011;104;53.590;10.004;2023-09-19T12:01:53;6.30;;;3.70;;
239;SDS011;104;53.590;10.004;2023-09-19T12:04:30;7.40;;;3.50;;
239;SDS011;104;53.590;10.004;2023-09-19T12:07:00;6.03;;;2.90;;
239;SDS011;104;53.590;10.004;2023-09-19T12:09:28;4.37;;;3.37;;
239;SDS011;104;53.590;10.004;2023-09-19T12:11:55;5.43;;;3.13;;
239;SDS011;104;53.590;10.004;2023-09-19T12:14:22;4.07;;;3.47;;
239;SDS011;104;53.590;10.004;2023-09-19T12:16:51;4.20;;;3.00;;
239;SDS011;104;53.590;10.004;2023-09-19T12:19:20;3.93;;;3.30;;
239;SDS011;104;53.590;10.004;2023-09-19T12:21:58;3.07;;;2.87;;
239;SDS011;104;53.590;10.004;2023-09-19T12:24:30;2.70;;;2.50;;
239;SDS011;104;53.590;10.004;2023-09-19T12:27:01;2.63;;;2.43;;
239;SDS011;104;53.590;10.004;2023-09-19T12:29:30;2.67;;;2.50;;
239;SDS011;104;53.590;10.004;2023-09-19T12:32:01;2.97;;;2.77;;
239;SDS011;104;53.590;10.004;2023-09-19T12:34:31;3.63;;;3.03;;
239;SDS011;104;53.590;10.004;2023-09-19T12:37:05;2.83;;;2.50;;
239;SDS011;104;53.590;10.004;2023-09-19T12:39:36;3.17;;;2.53;;
239;SDS011;104;53.590;10.004;2023-09-19T12:42:06;4.73;;;2.57;;
239;SDS011;104;53.590;10.004;2023-09-19T12:44:34;2.87;;;2.50;;
239;SDS011;104;53.590;10.004;2023-09-19T12:47:08;3.43;;;2.67;;
239;SDS011;104;53.590;10.004;2023-09-19T12:49:35;3.30;;;2.73;;
239;SDS011;104;53.590;10.004;2023-09-19T12:52:03;5.90;;;2.40;;
239;SDS011;104;53.590;10.004;2023-09-19T12:54:39;2.60;;;2.40;;
239;SDS011;104;53.590;10.004;2023-09-19T12:57:06;4.13;;;2.90;;
239;SDS011;104;53.590;10.004;2023-09-19T12:59:33;3.77;;;2.03;;
239;SDS011;104;53.590;10.004;2023-09-19T13:02:04;5.60;;;2.60;;
239;SDS011;104;53.590;10.004;2023-09-19T13:04:39;4.07;;;3.10;;
239;SDS011;104;53.590;10.004;2023-09-19T13:07:08;4.00;;;2.63;;
239;SDS011;104;53.590;10.004;2023-09-19T13:10:05;2.97;;;2.77;;
239;SDS011;104;53.590;10.004;2023-09-19T13:12:34;4.87;;;2.50;;
239;SDS011;104;53.590;10.004;2023-09-19T13:15:07;3.67;;;3.07;;
239;SDS011;104;53.590;10.004;2023-09-19T13:17:44;2.73;;;2.53;;
239;SDS011;104;53.590;10.004;2023-09-19T13:20:20;3.20;;;2.40;;
239;SDS011;104;53.590;10.004;2023-09-19T13:22:52;4.10;;;2.70;;
239;SDS011;104;53.590;10.004;2023-09-19T13:25:25;2.73;;;2.53;;
239;SDS011;104;53.590;10.004;2023-09-19T13:27:56;4.53;;;2.63;;
239;SDS011;104;53.590;10.004;2023-09-19T13:30:25;3.10;;;2.90;;
239;SDS011;104;53.590;10.004;2023-09-19T13:33:04;2.60;;;2.40;;
239;SDS011;104;53.590;10.004;2023-09-19T13:35:32;3.00;;;2.40;;
239;SDS011;104;53.590;10.004;2023-09-19T13:37:59;2.60;;;2.43;;
239;SDS011;104;53.590;10.004;2023-09-19T13:40:27;2.87;;;2.70;;
239;SDS011;104;53.590;10.004;2023-09-19T13:42:56;3.83;;;2.70;;
239;SDS011;104;53.590;10.004;2023-09-19T13:45:24;4.67;;;2.90;;
239;SDS011;104;53.590;10.004;2023-09-19T13:47:52;6.27;;;2.80;;
239;SDS011;104;53.590;10.004;2023-09-19T13:50:20;3.80;;;2.57;;
239;SDS011;104;53.590;10.004;2023-09-19T13:52:49;2.80;;;2.50;;
239;SDS011;104;53.590;10.004;2023-09-19T13:55:18;3.43;;;3.07;;
239;SDS011;104;53.590;10.004;2023-09-19T13:57:47;7.73;;;2.60;;
239;SDS011;104;53.590;10.004;2023-09-19T14:00:15;2.80;;;2.60;;
239;SDS011;104;53.590;10.004;2023-09-19T14:02:43;3.50;;;2.70;;
239;SDS011;104;53.590;10.004;2023-09-19T14:05:11;4.60;;;2.70;;
239;SDS011;104;53.590;10.004;2023-09-19T14:07:40;2.90;;;2.47;;
239;SDS011;104;53.590;10.004;2023-09-19T14:10:07;4.60;;;2.60;;
239;SDS011;104;53.590;10.004;2023-09-19T14:12:35;8.50;;;2.50;;
239;SDS011;104;53.590;10.004;2023-09-19T14:15:04;3.70;;;3.00;;
239;SDS011;104;53.590;10.004;2023-09-19T14:17:32;2.50;;;2.30;;
239;SDS011;104;53.590;10.004;2023-09-19T14:19:59;4.10;;;2.80;;
239;SDS011;104;53.590;10.004;2023-09-19T14:22:27;6.20;;;3.63;;
239;SDS011;104;53.590;10.004;2023-09-19T14:25:02;3.60;;;3.13;;
239;SDS011;104;53.590;10.004;2023-09-19T14:27:30;2.87;;;2.67;;
239;SDS011;104;53.590;10.004;2023-09-19T14:29:57;3.27;;;2.97;;
239;SDS011;104;53.590;10.004;2023-09-19T14:32:26;2.60;;;2.40;;
239;SDS011;104;53.590;10.004;2023-09-19T14:34:53;2.73;;;2.53;;
239;SDS011;104;53.590;10.004;2023-09-19T14:37:20;2.70;;;2.50;;
239;SDS011;104;53.590;10.004;2023-09-19T14:39:47;2.87;;;2.70;;
239;SDS011;104;53.590;10.004;2023-09-19T14:42:15;3.50;;;2.93;;
239;SDS011;104;53.590;10.004;2023-09-19T14:44:42;2.70;;;2.50;;
239;SDS011;104;53.590;10.004;2023-09-19T14:47:10;3.80;;;3.07;;
239;SDS011;104;53.590;10.004;2023-09-19T14:49:40;4.30;;;2.60;;
239;SDS011;104;53.590;10.004;2023-09-19T14:52:07;2.97;;;2.77;;
239;SDS011;104;53.590;10.004;2023-09-19T14:54:35;2.77;;;2.57;;
239;SDS011;104;53.590;10.004;2023-09-19T14:57:03;2.70;;;2.50;;
239;SDS011;104;53.590;10.004;2023-09-19T14:59:30;2.67;;;2.47;;
239;SDS011;104;53.590;10.004;2023-09-19T15:01:58;2.70;;;2.50;;
239;SDS011;104;53.590;10.004;2023-09-19T15:04:26;5.13;;;2.73;;
239;SDS011;104;53.590;10.004;2023-09-19T15:06:55;3.20;;;2.43;;
239;SDS011;104;53.590;10.004;2023-09-19T15:09:23;2.80;;;2.60;;
239;SDS011;104;53.590;10.004;2023-09-19T15:11:51;3.77;;;2.60;;
239;SDS011;104;53.590;10.004;2023-09-19T15:14:18;2.93;;;2.60;;
239;SDS011;104;53.590;10.004;2023-09-19T15:16:46;2.50;;;2.30;;
239;SDS011;104;53.590;10.004;2023-09-19T15:19:13;4.57;;;2.77;;
239;SDS011;104;53.590;10.004;2023-09-19T15:21:42;4.00;;;2.93;;
239;SDS011;104;53.590;10.004;2023-09-19T15:24:14;10.10;;;4.30;;
239;SDS011;104;53.590;10.004;2023-09-19T15:26:42;6.03;;;3.57;;
239;SDS011;104;53.590;10.004;2023-09-19T15:29:09;4.20;;;3.10;;
239;SDS011;104;53.590;10.004;2023-09-19T15:31:38;2.97;;;2.77;;
239;SDS011;104;53.590;10.004;2023-09-19T15:34:05;2.80;;;2.60;;
239;SDS011;104;53.590;10.004;2023-09-19T15:36:33;7.33;;;3.47;;
239;SDS011;104;53.590;10.004;2023-09-19T15:39:01;2.97;;;2.70;;
239;SDS011;104;53.590;10.004;2023-09-19T15:41:32;3.60;;;3.20;;
239;SDS011;104;53.590;10.004;2023-09-19T15:44:00;7.77;;;3.20;;
239;SDS011;104;53.590;10.004;2023-09-19T15:46:29;2.97;;;2.80;;
239;SDS011;104;53.590;10.004;2023-09-19T15:48:56;4.60;;;2.73;;
239;SDS011;104;53.590;10.004;2023-09-19T15:51:25;5.60;;;2.60;;
239;SDS011;104;53.590;10.004;2023-09-19T15:53:53;4.97;;;2.67;;
239;SDS011;104;53.590;10.004;2023-09-19T15:56:21;3.27;;;3.00;;
239;SDS011;104;53.590;10.004;2023-09-19T15:58:51;3.67;;;2.83;;
239;SDS011;104;53.590;10.004;2023-09-19T16:01:19;3.80;;;3.00;;
239;SDS011;104;53.590;10.004;2023-09-19T16:03:47;3.37;;;2.90;;
239;SDS011;104;53.590;10.004;2023-09-19T16:06:15;3.90;;;2.43;;
239;SDS011;104;53.590;10.004;2023-09-19T16:08:44;3.70;;;2.70;;
239;SDS011;104;53.590;10.004;2023-09-19T16:11:12;3.47;;;3.07;;